createdAt,value
2018-02-05T00:02:00.609Z,37.25
2018-02-05T00:04:28.173Z,37.40
2018-02-05T00:06:55.764Z,37.45
2018-02-05T00:09:23.350Z,40.20
2018-02-05T00:11:50.916Z,37.72
2018-02-05T00:14:19.112Z,40.85
2018-02-05T00:16:46.693Z,36.90
2018-02-05T00:19:14.256Z,41.97
2018-02-05T00:21:41.853Z,42.72
2018-02-05T00:24:10.209Z,40.30
2018-02-05T00:26:37.772Z,47.55
2018-02-05T00:29:05.374Z,41.45
2018-02-05T00:31:32.974Z,42.83
2018-02-05T00:34:01.327Z,43.65
2018-02-05T00:36:28.888Z,45.28
2018-02-05T00:38:56.447Z,35.15
2018-02-05T00:41:24.028Z,37.58
2018-02-05T00:43:52.451Z,42.15
2018-02-05T00:46:20.796Z,37.05
2018-02-05T00:48:48.388Z,37.75
2018-02-05T00:51:15.951Z,38.00
2018-02-05T00:53:43.525Z,39.45
2018-02-05T00:56:11.101Z,42.03
2018-02-05T00:58:38.768Z,37.38
2018-02-05T01:01:06.359Z,41.30
2018-02-05T01:03:33.925Z,36.20
2018-02-05T01:06:01.480Z,36.97
2018-02-05T01:08:29.156Z,37.45
2018-02-05T01:10:56.742Z,34.42
2018-02-05T01:13:24.381Z,41.72
2018-02-05T01:15:51.957Z,41.03
2018-02-05T01:18:19.617Z,40.30
2018-02-05T01:20:47.188Z,38.30
2018-02-05T01:23:14.760Z,38.20
2018-02-05T01:25:43.092Z,37.60
2018-02-05T01:28:10.662Z,33.53
2018-02-05T01:30:38.243Z,34.22
2018-02-05T01:33:06.012Z,34.97
2018-02-05T01:35:33.575Z,35.33
2018-02-05T01:38:01.135Z,36.17
2018-02-05T01:40:28.711Z,33.00
2018-02-05T01:42:56.351Z,37.63
2018-02-05T01:45:24.708Z,59.88
2018-02-05T01:47:52.319Z,38.20
2018-02-05T01:50:19.853Z,33.67
2018-02-05T01:52:48.224Z,30.20
2018-02-05T01:55:16.926Z,33.95
2018-02-05T01:57:44.508Z,31.62
2018-02-05T02:00:12.352Z,26.35
2018-02-05T02:02:39.921Z,29.75
2018-02-05T02:05:07.516Z,38.35
2018-02-05T02:07:38.131Z,30.27
2018-02-05T02:10:07.211Z,30.95
2018-02-05T02:12:36.399Z,28.73
2018-02-05T02:15:05.608Z,33.03
2018-02-05T02:17:34.828Z,32.63
2018-02-05T02:20:04.043Z,31.70
2018-02-05T02:22:33.196Z,30.70
2018-02-05T02:25:02.455Z,29.95
2018-02-05T02:27:31.671Z,37.10
2018-02-05T02:30:00.935Z,30.92
2018-02-05T02:32:30.199Z,32.92
2018-02-05T02:34:59.428Z,41.67
2018-02-05T02:37:28.644Z,38.90
2018-02-05T02:39:57.860Z,34.53
2018-02-05T02:42:27.320Z,39.95
2018-02-05T02:44:56.540Z,31.08
2018-02-05T02:47:25.765Z,31.15
2018-02-05T02:49:54.971Z,33.08
2018-02-05T02:52:24.211Z,42.05
2018-02-05T02:54:53.445Z,34.38
2018-02-05T02:57:22.578Z,31.08
2018-02-05T02:59:51.686Z,23.40
2018-02-05T03:02:20.912Z,27.13
2018-02-05T03:04:50.699Z,26.35
2018-02-05T03:07:19.917Z,25.00
2018-02-05T03:09:49.329Z,24.70
2018-02-05T03:12:18.550Z,28.65
2018-02-05T03:14:47.848Z,28.55
2018-02-05T03:17:17.119Z,28.12
2018-02-05T03:19:46.325Z,29.77
2018-02-05T03:22:15.235Z,28.80
2018-02-05T03:24:46.383Z,27.60
2018-02-05T03:27:15.603Z,35.20
2018-02-05T03:29:44.835Z,29.40
2018-02-05T03:32:13.902Z,28.62
2018-02-05T03:34:42.940Z,23.95
2018-02-05T03:37:15.023Z,26.87
2018-02-05T03:39:44.040Z,27.70
2018-02-05T03:42:13.096Z,28.50
2018-02-05T03:44:42.188Z,26.23
2018-02-05T03:47:11.274Z,28.35
2018-02-05T03:49:40.355Z,27.65
2018-02-05T03:52:09.536Z,25.40
2018-02-05T03:54:38.622Z,26.87
2018-02-05T03:57:07.728Z,25.45
2018-02-05T03:59:36.827Z,27.58
2018-02-05T04:02:06.437Z,29.27
2018-02-05T04:04:35.523Z,24.08
2018-02-05T04:07:21.461Z,26.10
2018-02-05T04:09:50.675Z,29.12
2018-02-05T04:12:19.866Z,33.47
2018-02-05T04:14:49.132Z,33.22
2018-02-05T04:17:18.362Z,38.13
2018-02-05T04:19:47.562Z,38.97
2018-02-05T04:22:16.698Z,45.47
2018-02-05T04:24:47.287Z,41.40
2018-02-05T04:27:16.316Z,41.40
2018-02-05T04:29:46.643Z,34.95
2018-02-05T04:32:15.692Z,32.00
2018-02-05T04:34:44.799Z,40.63
2018-02-05T04:37:13.987Z,37.40
2018-02-05T04:39:43.103Z,36.67
2018-02-05T04:42:12.322Z,37.22
2018-02-05T04:44:41.418Z,40.28
2018-02-05T04:47:10.664Z,44.00
2018-02-05T04:49:39.879Z,40.05
2018-02-05T04:52:09.055Z,43.40
2018-02-05T04:54:38.290Z,50.60
2018-02-05T04:57:07.546Z,41.13
2018-02-05T04:59:36.757Z,39.92
2018-02-05T05:02:06.365Z,45.47
2018-02-05T05:04:35.493Z,41.08
2018-02-05T05:07:04.624Z,43.55
2018-02-05T05:09:33.703Z,33.08
2018-02-05T05:12:02.795Z,43.38
2018-02-05T05:14:32.481Z,46.08
2018-02-05T05:17:01.590Z,38.00
2018-02-05T05:19:30.994Z,44.25
2018-02-05T05:22:00.576Z,39.60
2018-02-05T05:24:29.800Z,41.13
2018-02-05T05:26:58.890Z,40.90
2018-02-05T05:29:28.234Z,43.53
2018-02-05T05:31:57.573Z,41.33
2018-02-05T05:34:26.723Z,45.83
2018-02-05T05:36:55.931Z,45.97
2018-02-05T05:39:25.186Z,41.85
2018-02-05T05:41:54.653Z,45.40
2018-02-05T05:44:23.850Z,39.90
2018-02-05T05:46:53.059Z,54.45
2018-02-05T05:49:22.262Z,48.92
2018-02-05T05:51:51.576Z,47.30
2018-02-05T05:54:20.523Z,50.28
2018-02-05T05:56:53.670Z,45.53
2018-02-05T05:59:22.742Z,47.20
2018-02-05T06:01:51.730Z,44.38
2018-02-05T06:04:22.854Z,45.08
2018-02-05T06:06:51.779Z,45.72
2018-02-05T06:09:22.789Z,46.58
2018-02-05T06:11:53.970Z,46.95
2018-02-05T06:14:22.946Z,43.53
2018-02-05T06:16:51.971Z,43.83
2018-02-05T06:19:23.063Z,45.95
2018-02-05T06:21:52.060Z,42.90
2018-02-05T06:24:21.046Z,41.03
2018-02-05T06:26:51.327Z,52.65
2018-02-05T06:29:20.327Z,43.83
2018-02-05T06:31:49.550Z,44.13
2018-02-05T06:34:20.675Z,48.83
2018-02-05T06:36:49.759Z,47.58
2018-02-05T06:39:18.905Z,45.25
2018-02-05T06:41:48.015Z,50.08
2018-02-05T06:44:17.250Z,49.00
2018-02-05T06:46:46.491Z,54.08
2018-02-05T06:49:15.675Z,37.55
2018-02-05T06:51:50.856Z,44.60
2018-02-05T06:54:26.138Z,45.67
2018-02-05T06:56:55.208Z,43.22
2018-02-05T06:59:24.372Z,48.15
2018-02-05T07:01:53.503Z,40.83
2018-02-05T07:04:28.509Z,46.85
2018-02-05T07:06:59.555Z,44.15
2018-02-05T07:09:28.750Z,43.70
2018-02-05T07:11:57.977Z,50.85
2018-02-05T07:14:27.385Z,49.03
2018-02-05T07:16:56.519Z,50.50
2018-02-05T07:19:25.734Z,44.47
2018-02-05T07:21:54.839Z,40.92
2018-02-05T07:24:23.818Z,46.20
2018-02-05T07:26:54.943Z,41.63
2018-02-05T07:29:26.196Z,45.65
2018-02-05T07:31:57.399Z,43.92
2018-02-05T07:34:27.568Z,53.92
2018-02-05T07:36:56.742Z,47.92
2018-02-05T07:39:26.093Z,46.60
2018-02-05T07:41:55.698Z,47.15
2018-02-05T07:44:24.785Z,46.25
2018-02-05T07:46:53.867Z,55.40
2018-02-05T07:49:23.119Z,51.80
2018-02-05T07:51:52.254Z,50.72
2018-02-05T07:54:21.195Z,47.42
2018-02-05T07:56:52.320Z,47.62
2018-02-05T07:59:21.309Z,44.63
2018-02-05T08:01:50.383Z,49.67
2018-02-05T08:04:19.441Z,51.33
2018-02-05T08:06:48.476Z,47.88
2018-02-05T08:09:17.555Z,47.55
2018-02-05T08:11:46.554Z,48.05
2018-02-05T08:14:15.592Z,52.20
2018-02-05T08:16:44.724Z,46.53
2018-02-05T08:19:13.699Z,43.05
2018-02-05T08:21:42.651Z,48.67
2018-02-05T08:24:11.623Z,52.22
2018-02-05T08:26:40.587Z,79.40
2018-02-05T08:29:09.604Z,50.72
2018-02-05T08:31:38.702Z,48.58
2018-02-05T08:34:09.502Z,43.22
2018-02-05T08:36:38.493Z,48.08
2018-02-05T08:39:07.483Z,50.78
2018-02-05T08:41:36.860Z,42.45
2018-02-05T08:44:09.129Z,43.17
2018-02-05T08:46:38.117Z,41.00
2018-02-05T08:49:07.276Z,44.00
2018-02-05T08:51:37.614Z,44.22
2018-02-05T08:54:06.726Z,42.97
2018-02-05T08:56:36.071Z,36.35
2018-02-05T08:59:05.007Z,33.70
2018-02-05T09:01:34.086Z,35.05
2018-02-05T09:04:03.211Z,34.50
2018-02-05T09:06:32.315Z,35.15
2018-02-05T09:09:01.562Z,40.65
2018-02-05T09:11:30.679Z,43.08
2018-02-05T09:14:00.494Z,40.95
2018-02-05T09:16:29.455Z,32.92
2018-02-05T09:19:00.625Z,30.62
2018-02-05T09:21:29.638Z,32.92
2018-02-05T09:23:58.638Z,32.08
2018-02-05T09:26:27.682Z,30.88
2018-02-05T09:28:56.800Z,31.92
2018-02-05T09:31:26.031Z,27.37
2018-02-05T09:33:55.186Z,26.67
2018-02-05T09:36:24.294Z,30.05
2018-02-05T09:38:53.636Z,29.30
2018-02-05T09:41:22.867Z,34.65
2018-02-05T09:43:52.271Z,29.42
2018-02-05T09:46:21.480Z,27.77
2018-02-05T09:48:50.679Z,32.10
2018-02-05T09:51:19.893Z,27.30
2018-02-05T09:53:49.119Z,29.10
2018-02-05T09:56:20.505Z,26.87
2018-02-05T09:58:49.986Z,27.87
2018-02-05T10:01:21.479Z,25.05
2018-02-05T10:03:50.758Z,28.30
2018-02-05T10:06:19.976Z,24.17
2018-02-05T10:08:49.174Z,26.42
2018-02-05T10:11:18.398Z,26.17
2018-02-05T10:13:47.644Z,28.77
2018-02-05T10:16:18.607Z,24.77
2018-02-05T10:18:48.143Z,23.98
2018-02-05T10:21:17.525Z,26.17
2018-02-05T10:23:46.762Z,24.48
2018-02-05T10:26:15.969Z,25.17
2018-02-05T10:28:47.587Z,24.23
2018-02-05T10:31:16.832Z,24.67
2018-02-05T10:33:46.051Z,23.17
2018-02-05T10:36:15.525Z,25.33
2018-02-05T10:38:47.221Z,28.50
2018-02-05T10:41:21.697Z,21.33
2018-02-05T10:43:51.235Z,24.40
2018-02-05T10:46:20.464Z,25.27
2018-02-05T10:48:49.677Z,23.12
2018-02-05T10:51:18.942Z,27.40
2018-02-05T10:53:48.142Z,24.92
2018-02-05T10:56:17.362Z,25.35
2018-02-05T10:58:46.603Z,23.45
2018-02-05T11:01:15.855Z,23.98
2018-02-05T11:03:45.059Z,18.02
2018-02-05T11:06:14.294Z,21.00
2018-02-05T11:08:43.529Z,23.95
2018-02-05T11:11:12.736Z,25.10
2018-02-05T11:13:42.035Z,21.95
2018-02-05T11:16:11.251Z,24.15
2018-02-05T11:18:40.487Z,22.67
2018-02-05T11:21:09.693Z,20.65
2018-02-05T11:23:42.044Z,24.20
2018-02-05T11:26:11.820Z,23.92
2018-02-05T11:28:41.665Z,21.30
2018-02-05T11:31:10.912Z,16.75
2018-02-05T11:33:40.187Z,20.67
2018-02-05T11:36:09.493Z,20.83
2018-02-05T11:38:38.730Z,15.70
2018-02-05T11:41:07.979Z,19.40
2018-02-05T11:43:37.216Z,20.37
2018-02-05T11:46:06.441Z,17.90
2018-02-05T11:48:35.711Z,20.33
2018-02-05T11:51:04.953Z,20.77
2018-02-05T11:53:34.272Z,18.40
2018-02-05T11:56:03.495Z,23.50
2018-02-05T11:58:32.721Z,22.15
2018-02-05T12:01:01.953Z,21.50
2018-02-05T12:03:31.284Z,28.87
2018-02-05T12:06:00.575Z,17.42
2018-02-05T12:08:29.853Z,17.23
2018-02-05T12:10:59.215Z,17.83
2018-02-05T12:13:28.438Z,17.05
2018-02-05T12:15:57.658Z,20.42
2018-02-05T12:18:26.869Z,20.67
2018-02-05T12:20:56.092Z,18.80
2018-02-05T12:23:25.332Z,19.80
2018-02-05T12:25:54.623Z,16.35
2018-02-05T12:28:23.839Z,20.25
2018-02-05T12:30:53.051Z,14.52
2018-02-05T12:33:22.275Z,15.98
2018-02-05T12:35:51.494Z,18.45
2018-02-05T12:38:20.712Z,16.48
2018-02-05T12:40:49.917Z,18.55
2018-02-05T12:43:19.148Z,17.15
2018-02-05T12:45:48.371Z,14.10
2018-02-05T12:48:17.588Z,17.83
2018-02-05T12:50:46.816Z,14.27
2018-02-05T12:53:16.039Z,15.18
2018-02-05T12:55:45.264Z,15.18
2018-02-05T12:58:14.482Z,13.93
2018-02-05T13:00:48.268Z,14.60
2018-02-05T13:03:29.347Z,56.30
2018-02-05T13:06:03.569Z,27.80
2018-02-05T13:08:32.786Z,12.90
2018-02-05T13:11:01.991Z,14.70
2018-02-05T13:13:31.216Z,14.00
2018-02-05T13:16:00.419Z,13.70
2018-02-05T13:18:29.627Z,15.33
2018-02-05T13:20:58.843Z,19.60
2018-02-05T13:29:05.232Z,13.17
2018-02-05T13:31:34.448Z,13.43
2018-02-05T13:34:03.676Z,12.10
2018-02-05T13:36:33.315Z,16.47
2018-02-05T13:39:02.539Z,14.90
2018-02-05T13:41:31.783Z,11.87
2018-02-05T13:44:01.021Z,14.60
2018-02-05T13:46:30.244Z,10.80
2018-02-05T13:48:59.571Z,12.57
2018-02-05T13:51:28.923Z,11.37
2018-02-05T13:53:58.623Z,14.10
2018-02-05T13:56:27.847Z,14.50
2018-02-05T13:58:57.151Z,15.47
2018-02-05T14:01:28.166Z,21.10
2018-02-05T14:03:58.579Z,11.50
2018-02-05T14:06:28.963Z,12.77
2018-02-05T14:08:58.177Z,11.90
2018-02-05T14:11:27.399Z,12.13
2018-02-05T14:13:56.608Z,12.40
2018-02-05T14:16:25.836Z,13.73
2018-02-05T14:19:00.878Z,13.90
2018-02-05T14:21:30.119Z,12.05
2018-02-05T14:23:59.355Z,13.62
2018-02-05T14:26:28.563Z,13.05
2018-02-05T14:28:57.799Z,14.40
2018-02-05T14:31:27.006Z,13.05
2018-02-05T14:33:56.379Z,22.85
2018-02-05T14:36:27.740Z,16.23
2018-02-05T14:38:57.000Z,10.60
2018-02-05T14:41:28.075Z,14.38
2018-02-05T14:43:57.486Z,10.85
2018-02-05T14:46:26.696Z,10.90
2018-02-05T14:48:55.930Z,10.38
2018-02-05T14:51:27.776Z,12.40
2018-02-05T14:54:00.129Z,12.63
2018-02-05T14:56:29.425Z,10.88
2018-02-05T14:58:58.652Z,12.43
2018-02-05T15:01:27.913Z,10.45
2018-02-05T15:03:57.094Z,33.28
2018-02-05T15:06:26.486Z,12.90
2018-02-05T15:08:55.694Z,13.15
2018-02-05T15:11:24.898Z,11.73
2018-02-05T15:15:31.982Z,16.37
2018-02-05T15:18:01.228Z,13.80
2018-02-05T15:20:30.456Z,14.20
2018-02-05T15:22:59.694Z,12.95
2018-02-05T15:25:28.976Z,18.55
2018-02-05T15:27:58.179Z,19.60
2018-02-05T15:30:27.410Z,14.40
2018-02-05T15:32:56.703Z,17.35
2018-02-05T15:35:25.920Z,16.50
2018-02-05T15:37:55.154Z,16.80
2018-02-05T15:40:24.488Z,18.00
2018-02-05T15:42:53.700Z,20.92
2018-02-05T15:45:22.963Z,17.67
2018-02-05T15:47:52.181Z,19.08
2018-02-05T15:50:21.491Z,18.10
2018-02-05T15:52:50.735Z,16.45
2018-02-05T15:55:20.518Z,21.20
2018-02-05T15:57:49.836Z,19.62
2018-02-05T16:00:19.051Z,25.02
2018-02-05T16:02:48.419Z,21.67
2018-02-05T16:05:17.699Z,22.85
2018-02-05T16:07:46.915Z,29.40
2018-02-05T16:10:16.172Z,30.55
2018-02-05T16:12:45.380Z,28.05
2018-02-05T16:15:14.611Z,37.90
2018-02-05T16:17:44.732Z,39.28
2018-02-05T16:20:13.996Z,28.85
2018-02-05T16:22:43.199Z,29.35
2018-02-05T16:25:12.447Z,22.60
2018-02-05T16:27:41.690Z,20.85
2018-02-05T16:30:10.887Z,20.05
2018-02-05T16:32:40.104Z,20.60
2018-02-05T16:35:09.391Z,18.45
2018-02-05T16:37:38.647Z,26.40
2018-02-05T16:40:07.863Z,24.70
2018-02-05T16:42:37.089Z,21.95
2018-02-05T16:45:06.417Z,22.10
2018-02-05T16:47:35.963Z,21.35
2018-02-05T16:50:05.725Z,24.05
2018-02-05T16:52:35.543Z,21.80
2018-02-05T16:55:05.237Z,28.48
2018-02-05T16:57:34.475Z,26.45
2018-02-05T17:00:03.763Z,24.27
2018-02-05T17:02:33.026Z,29.98
2018-02-05T17:05:02.258Z,32.92
2018-02-05T17:07:31.470Z,32.70
2018-02-05T17:10:00.688Z,34.85
2018-02-05T17:12:29.895Z,34.90
2018-02-05T17:14:59.112Z,29.58
2018-02-05T17:17:28.394Z,26.67
2018-02-05T17:19:57.606Z,26.37
2018-02-05T17:22:26.824Z,32.35
2018-02-05T17:24:56.055Z,26.15
2018-02-05T17:27:25.331Z,34.50
2018-02-05T17:29:54.560Z,30.77
2018-02-05T17:32:23.779Z,30.40
2018-02-05T17:34:53.127Z,25.65
2018-02-05T17:37:22.349Z,30.08
2018-02-05T17:39:52.055Z,38.83
2018-02-05T17:42:21.256Z,29.12
2018-02-05T17:44:50.553Z,35.42
2018-02-05T17:47:20.232Z,32.78
2018-02-05T17:49:49.465Z,29.58
2018-02-05T17:52:18.699Z,28.70
2018-02-05T17:54:47.983Z,42.55
2018-02-05T17:57:17.196Z,33.25
2018-02-05T17:59:46.564Z,35.58
2018-02-05T18:02:15.828Z,39.45
2018-02-05T18:04:45.297Z,31.37
2018-02-05T18:07:14.525Z,40.10
2018-02-05T18:09:43.754Z,34.88
2018-02-05T18:12:12.985Z,38.45
2018-02-05T18:14:42.200Z,35.67
2018-02-05T18:17:11.436Z,35.15
2018-02-05T18:19:40.667Z,33.40
2018-02-05T18:22:09.974Z,36.90
2018-02-05T18:24:39.219Z,27.90
2018-02-05T18:27:08.438Z,32.50
2018-02-05T18:29:37.648Z,27.55
2018-02-05T18:32:07.017Z,27.25
2018-02-05T18:34:36.288Z,37.92
2018-02-05T18:37:05.583Z,28.38
2018-02-05T18:39:34.799Z,23.98
2018-02-05T18:42:04.106Z,24.98
2018-02-05T18:44:33.589Z,26.48
2018-02-05T18:47:02.796Z,26.90
2018-02-05T18:49:32.003Z,28.48
2018-02-05T18:52:01.217Z,31.77
2018-02-05T18:54:30.533Z,29.67
2018-02-05T18:56:59.756Z,28.45
2018-02-05T18:59:28.963Z,24.98
2018-02-05T19:02:03.996Z,29.30
2018-02-05T19:04:33.522Z,22.33
2018-02-05T19:07:02.726Z,21.20
2018-02-05T19:09:32.176Z,26.67
2018-02-05T19:12:01.380Z,23.10
2018-02-05T19:14:31.356Z,27.08
2018-02-05T19:17:00.605Z,32.25
2018-02-05T19:19:29.848Z,27.10
2018-02-05T19:21:59.081Z,25.65
2018-02-05T19:24:28.474Z,25.95
2018-02-05T19:26:58.165Z,30.85
2018-02-05T19:29:27.513Z,27.77
2018-02-05T19:31:56.795Z,28.95
2018-02-05T19:34:26.008Z,29.10
2018-02-05T19:36:55.336Z,30.00
2018-02-05T19:39:24.645Z,30.15
2018-02-05T19:41:55.032Z,30.05
2018-02-05T19:44:24.298Z,33.95
2018-02-05T19:46:53.600Z,29.85
2018-02-05T19:49:22.806Z,32.45
2018-02-05T19:51:52.015Z,28.80
2018-02-05T19:54:21.250Z,34.63
2018-02-05T19:56:50.164Z,32.67
2018-02-05T19:59:20.079Z,31.42
2018-02-05T20:01:49.303Z,34.67
2018-02-05T20:04:18.577Z,33.38
2018-02-05T20:06:47.795Z,30.65
2018-02-05T20:09:17.008Z,28.83
2018-02-05T20:11:46.267Z,29.48
2018-02-05T20:14:15.628Z,34.90
2018-02-05T20:16:44.838Z,30.55
2018-02-05T20:19:14.056Z,28.15
2018-02-05T20:21:43.263Z,30.60
2018-02-05T20:24:12.515Z,27.15
2018-02-05T20:26:42.739Z,30.42
2018-02-05T20:29:12.151Z,34.30
2018-02-05T20:31:41.694Z,26.10
2018-02-05T20:34:12.793Z,25.90
2018-02-05T20:36:42.047Z,30.70
2018-02-05T20:39:11.258Z,22.33
2018-02-05T20:41:42.182Z,24.85
2018-02-05T20:44:11.431Z,25.55
2018-02-05T20:46:40.655Z,27.67
2018-02-05T20:49:09.884Z,27.45
2018-02-05T20:51:39.228Z,23.35
2018-02-05T20:54:08.914Z,23.40
2018-02-05T20:56:38.186Z,21.08
2018-02-05T20:59:07.255Z,26.75
2018-02-05T21:01:36.933Z,27.17
2018-02-05T21:04:08.979Z,38.53
2018-02-05T21:06:38.271Z,21.67
2018-02-05T21:09:07.478Z,30.92
2018-02-05T21:11:36.692Z,24.20
2018-02-05T21:14:06.103Z,27.85
2018-02-05T21:16:37.514Z,26.40
2018-02-05T21:19:07.340Z,29.45
2018-02-05T21:21:38.349Z,29.75
2018-02-05T21:24:10.203Z,23.33
2018-02-05T21:26:39.414Z,28.38
2018-02-05T21:29:08.788Z,26.35
2018-02-05T21:31:37.993Z,25.37
2018-02-05T21:34:07.199Z,24.05
2018-02-05T21:36:36.531Z,27.77
2018-02-05T21:39:05.734Z,30.27
2018-02-05T21:41:34.938Z,25.40
2018-02-05T21:44:04.138Z,26.15
2018-02-05T21:46:33.375Z,31.48
2018-02-05T21:49:02.615Z,28.62
2018-02-05T21:51:31.870Z,31.75
2018-02-05T21:54:01.123Z,28.87
2018-02-05T21:56:30.443Z,31.52
2018-02-05T21:58:59.687Z,36.10
2018-02-05T22:01:28.943Z,29.45
2018-02-05T22:03:58.295Z,32.40
2018-02-05T22:06:27.564Z,28.20
2018-02-05T22:08:56.760Z,32.17
2018-02-05T22:11:25.986Z,34.92
2018-02-05T22:13:55.188Z,28.17
2018-02-05T22:16:24.391Z,30.65
2018-02-05T22:18:53.716Z,28.65
2018-02-05T22:21:23.016Z,27.05
2018-02-05T22:23:52.624Z,27.85
2018-02-05T22:26:21.920Z,33.20
2018-02-05T22:28:51.152Z,29.23
2018-02-05T22:31:20.377Z,30.73
2018-02-05T22:33:54.235Z,30.70
2018-02-05T22:36:23.763Z,32.90
2018-02-05T22:38:53.125Z,29.02
2018-02-05T22:41:22.362Z,29.77
2018-02-05T22:43:51.565Z,29.50
2018-02-05T22:46:20.784Z,26.25
2018-02-05T22:48:50.020Z,30.62
2018-02-05T22:51:19.290Z,30.00
2018-02-05T22:53:48.501Z,29.27
2018-02-05T22:56:29.232Z,29.42
2018-02-05T22:58:58.453Z,30.75
2018-02-05T23:01:27.660Z,30.17
2018-02-05T23:03:56.863Z,32.78
2018-02-05T23:06:26.149Z,33.92
2018-02-05T23:08:55.376Z,28.60
2018-02-05T23:11:24.699Z,32.17
2018-02-05T23:13:53.916Z,29.20
2018-02-05T23:16:23.122Z,30.77
2018-02-05T23:18:52.342Z,32.97
2018-02-05T23:21:21.634Z,30.65
2018-02-05T23:23:50.848Z,31.98
2018-02-05T23:26:20.067Z,32.60
2018-02-05T23:28:49.296Z,32.03
2018-02-05T23:31:18.559Z,33.03
2018-02-05T23:33:47.765Z,34.00
2018-02-05T23:36:16.974Z,29.55
2018-02-05T23:38:46.280Z,33.72
2018-02-05T23:41:15.499Z,32.22
2018-02-05T23:43:44.697Z,31.77
2018-02-05T23:46:14.010Z,30.23
2018-02-05T23:48:43.226Z,27.00
2018-02-05T23:51:12.462Z,32.25
2018-02-05T23:53:41.719Z,29.75
2018-02-05T23:56:10.934Z,28.45
2018-02-05T23:58:40.137Z,29.55
